Time,TemperatureF,DewpointF,PressureIn,WindDirection,WindDirectionDegrees,WindSpeedMPH,WindSpeedGustMPH,Humidity,HourlyPrecipIn,Conditions,Clouds,dailyrainin,SoftwareType,DateUTC
2013-04-17 00:03:00,21.0,18.0,30.07,ENE,60,3.5,3.5,88,0.00,RA,,0.00,WeatherDisplay:10.37,2013-04-17 06:03:00,
2013-04-17 00:08:00,21.0,18.0,30.07,ENE,60,3.5,3.5,88,0.00,RA,,0.00,WeatherDisplay:10.37,2013-04-17 06:08:00,
2013-04-17 00:13:00,21.0,18.0,30.07,ENE,64,5.8,5.8,88,0.00,CLR,,0.00,WeatherDisplay:10.37,2013-04-17 06:13:00,
2013-04-17 00:18:00,21.0,18.0,30.07,ENE,66,4.6,4.6,88,0.00,CLR,,0.00,WeatherDisplay:10.37,2013-04-17 06:18:00,
2013-04-17 00:23:00,21.0,18.0,30.07,ENE,62,3.5,3.5,88,0.00,CLR,,0.00,WeatherDisplay:10.37,2013-04-17 06:23:00,
2013-04-17 00:28:00,21.0,18.0,30.07,ENE,63,4.6,4.6,88,0.00,CLR,,0.00,WeatherDisplay:10.37,2013-04-17 06:28:00,
2013-04-17 00:33:00,21.0,18.0,30.07,NNE,31,3.5,3.5,88,0.00,CLR,,0.00,WeatherDisplay:10.37,2013-04-17 06:33:00,
2013-04-17 00:38:00,21.0,18.0,30.07,ENE,57,3.5,3.5,88,0.00,CLR,,0.00,WeatherDisplay:10.37,2013-04-17 06:38:00,
2013-04-17 00:43:00,21.0,18.0,30.07,ENE,59,4.6,4.6,88,0.00,CLR,,0.00,WeatherDisplay:10.37,2013-04-17 06:43:00,
2013-04-17 00:48:00,21.0,18.0,30.07,ENE,64,3.5,3.5,88,0.00,CLR,,0.00,WeatherDisplay:10.37,2013-04-17 06:48:00,
2013-04-17 00:53:00,21.0,17.7,30.07,East,79,4.6,4.6,87,0.00,CLR,,0.00,WeatherDisplay:10.37,2013-04-17 06:53:00,
2013-04-17 00:58:00,20.8,17.5,30.07,ENE,70,4.6,4.6,87,0.00,CLR,,0.00,WeatherDisplay:10.37,2013-04-17 06:58:00,
2013-04-17 01:03:00,20.8,17.5,30.07,NE,56,5.0,5.0,87,0.00,CLR,,0.00,WeatherDisplay:10.37,2013-04-17 07:03:00,
2013-04-17 01:08:00,20.8,17.8,30.07,NNE,26,5.8,5.8,88,0.00,CLR,,0.00,WeatherDisplay:10.37,2013-04-17 07:08:00,
2013-04-17 01:13:00,20.8,17.8,30.07,NE,46,3.5,3.5,88,0.00,CLR,,0.00,WeatherDisplay:10.37,2013-04-17 07:13:00,
2013-04-17 01:18:00,20.8,17.8,30.07,NE,45,5.8,5.8,88,0.00,CLR,,0.00,WeatherDisplay:10.37,2013-04-17 07:18:00,
2013-04-17 01:23:00,20.8,17.5,30.07,ENE,60,4.6,4.6,87,0.00,CLR,,0.00,WeatherDisplay:10.37,2013-04-17 07:23:00,
2013-04-17 01:28:00,20.8,17.5,30.07,ENE,62,5.0,5.0,87,0.00,CLR,,0.00,WeatherDisplay:10.37,2013-04-17 07:28:00,
2013-04-17 01:33:00,21.0,17.7,30.07,ENE,64,4.6,4.6,87,0.00,CLR,,0.00,WeatherDisplay:10.37,2013-04-17 07:33:00,
2013-04-17 01:38:00,20.8,17.5,30.07,ENE,62,4.6,4.6,87,0.00,CLR,,0.00,WeatherDisplay:10.37,2013-04-17 07:38:00,
2013-04-17 01:43:00,20.8,17.5,30.07,NE,56,3.5,3.5,87,0.00,CLR,,0.00,WeatherDisplay:10.37,2013-04-17 07:43:00,
2013-04-17 01:48:00,20.8,17.5,30.06,ENE,60,5.0,5.0,87,0.00,CLR,,0.00,WeatherDisplay:10.37,2013-04-17 07:48:00,
2013-04-17 01:53:00,20.8,17.5,30.06,NE,52,4.6,4.6,87,0.00,CLR,,0.00,WeatherDisplay:10.37,2013-04-17 07:53:00,
2013-04-17 01:58:00,20.8,17.5,30.06,ENE,57,3.5,3.5,87,0.00,CLR,,0.00,WeatherDisplay:10.37,2013-04-17 07:58:00,
2013-04-17 02:03:00,20.8,17.5,30.06,ENE,59,5.8,5.8,87,0.00,CLR,,0.00,WeatherDisplay:10.37,2013-04-17 08:03:00,
2013-04-17 02:08:00,20.8,17.5,30.06,ENE,62,3.5,3.5,87,0.00,CLR,,0.00,WeatherDisplay:10.37,2013-04-17 08:08:00,
2013-04-17 02:13:00,20.6,17.3,30.06,ENE,72,5.8,5.8,87,0.00,CLR,,0.00,WeatherDisplay:10.37,2013-04-17 08:13:00,
2013-04-17 02:18:00,20.5,17.2,30.05,ENE,67,4.6,4.6,87,0.00,CLR,,0.00,WeatherDisplay:10.37,2013-04-17 08:18:00,
2013-04-17 02:23:00,20.5,17.2,30.05,NE,56,4.6,4.6,87,0.00,CLR,,0.00,WeatherDisplay:10.37,2013-04-17 08:23:00,
2013-04-17 02:28:00,20.5,17.2,30.05,NE,55,5.8,5.8,87,0.00,CLR,,0.00,WeatherDisplay:10.37,2013-04-17 08:28:00,
2013-04-17 02:33:00,20.3,17.0,30.05,ENE,74,4.6,4.6,87,0.00,CLR,,0.00,WeatherDisplay:10.37,2013-04-17 08:33:00,
2013-04-17 02:38:00,20.3,17.0,30.05,ENE,72,5.0,5.0,87,0.00,CLR,,0.00,WeatherDisplay:10.37,2013-04-17 08:38:00,
2013-04-17 02:43:00,20.3,17.0,30.05,ENE,70,5.0,5.0,87,0.00,CLR,,0.00,WeatherDisplay:10.37,2013-04-17 08:43:00,
2013-04-17 02:48:00,20.3,17.0,30.06,NE,46,5.8,5.8,87,0.00,CLR,,0.00,WeatherDisplay:10.37,2013-04-17 08:48:00,
2013-04-17 02:53:00,20.3,17.0,30.06,NNE,33,3.5,3.5,87,0.00,CLR,,0.00,WeatherDisplay:10.37,2013-04-17 08:53:00,
2013-04-17 02:58:00,20.3,17.0,30.06,NE,38,5.0,5.0,87,0.00,CLR,,0.00,WeatherDisplay:10.37,2013-04-17 08:58:00,
2013-04-17 03:03:00,20.3,17.0,30.05,NE,43,5.8,5.8,87,0.00,CLR,,0.00,WeatherDisplay:10.37,2013-04-17 09:03:00,
2013-04-17 03:08:00,20.3,17.0,30.05,NE,55,5.8,5.8,87,0.00,CLR,,0.00,WeatherDisplay:10.37,2013-04-17 09:08:00,
2013-04-17 03:13:00,20.3,17.0,30.05,NNE,29,3.5,3.5,87,0.00,CLR,,0.00,WeatherDisplay:10.37,2013-04-17 09:13:00,
2013-04-17 03:18:00,20.3,17.0,30.05,ENE,59,4.6,4.6,87,0.00,CLR,,0.00,WeatherDisplay:10.37,2013-04-17 09:18:00,
2013-04-17 03:23:00,20.3,17.0,30.05,NE,55,4.6,4.6,87,0.00,CLR,,0.00,WeatherDisplay:10.37,2013-04-17 09:23:00,
2013-04-17 03:28:00,20.3,17.0,30.05,ENE,66,4.6,4.6,87,0.00,CLR,,0.00,WeatherDisplay:10.37,2013-04-17 09:28:00,
2013-04-17 03:33:00,20.2,17.0,30.05,East,97,2.3,2.3,87,0.00,CLR,,0.00,WeatherDisplay:10.37,2013-04-17 09:33:00,
2013-04-17 03:38:00,20.2,17.0,30.05,ENE,70,3.5,3.5,87,0.00,CLR,,0.00,WeatherDisplay:10.37,2013-04-17 09:38:00,
2013-04-17 03:43:00,20.2,17.0,30.05,ENE,67,3.5,3.5,87,0.00,CLR,,0.00,WeatherDisplay:10.37,2013-04-17 09:43:00,
2013-04-17 03:48:00,20.2,17.0,30.05,ENE,59,3.5,3.5,87,0.00,CLR,,0.00,WeatherDisplay:10.37,2013-04-17 09:48:00,
2013-04-17 03:53:00,20.2,17.0,30.05,ENE,59,3.0,3.0,87,0.00,CLR,,0.00,WeatherDisplay:10.37,2013-04-17 09:53:00,
2013-04-17 03:58:00,20.2,17.0,30.05,ENE,59,2.3,2.3,87,0.00,CLR,,0.00,WeatherDisplay:10.37,2013-04-17 09:58:00,
2013-04-17 04:03:00,20.2,17.0,30.05,ENE,66,1.2,1.2,87,0.00,CLR,,0.00,WeatherDisplay:10.37,2013-04-17 10:03:00,
2013-04-17 04:08:00,20.3,17.0,30.05,ENE,66,2.0,2.0,87,0.00,CLR,,0.00,WeatherDisplay:10.37,2013-04-17 10:08:00,
2013-04-17 04:13:00,20.3,17.3,30.05,ENE,66,2.3,2.3,88,0.00,CLR,,0.00,WeatherDisplay:10.37,2013-04-17 10:13:00,
2013-04-17 04:18:00,20.3,17.0,30.05,ENE,66,0.0,0.0,87,0.00,CLR,,0.00,WeatherDisplay:10.37,2013-04-17 10:18:00,
2013-04-17 04:23:00,20.3,17.3,30.05,ENE,66,2.3,2.3,88,0.00,CLR,,0.00,WeatherDisplay:10.37,2013-04-17 10:23:00,
2013-04-17 04:28:00,20.3,17.0,30.05,ENE,64,2.3,2.3,87,0.00,CLR,,0.00,WeatherDisplay:10.37,2013-04-17 10:28:00,
2013-04-17 04:33:00,20.3,17.0,30.04,NE,39,3.5,3.5,87,0.00,CLR,,0.00,WeatherDisplay:10.37,2013-04-17 10:33:00,
2013-04-17 04:38:00,20.3,17.0,30.04,NE,42,2.3,2.3,87,0.00,CLR,,0.00,WeatherDisplay:10.37,2013-04-17 10:38:00,
2013-04-17 04:43:00,20.2,17.0,30.04,NE,40,2.3,2.3,87,0.00,CLR,,0.00,WeatherDisplay:10.37,2013-04-17 10:43:00,
2013-04-17 04:48:00,20.2,17.0,30.03,NE,48,2.3,2.3,87,0.00,CLR,,0.00,WeatherDisplay:10.37,2013-04-17 10:48:00,
2013-04-17 04:53:00,20.2,17.0,30.03,ENE,60,2.3,2.3,87,0.00,CLR,,0.00,WeatherDisplay:10.37,2013-04-17 10:53:00,
2013-04-17 04:58:00,20.0,16.8,30.03,ENE,59,3.5,3.5,87,0.00,CLR,,0.00,WeatherDisplay:10.37,2013-04-17 10:58:00,
2013-04-17 05:03:00,20.0,16.8,30.04,ENE,66,5.8,5.8,87,0.00,CLR,,0.00,WeatherDisplay:10.37,2013-04-17 11:03:00,
2013-04-17 05:08:00,20.0,16.8,30.04,NE,46,4.6,4.6,87,0.00,CLR,,0.00,WeatherDisplay:10.37,2013-04-17 11:08:00,
2013-04-17 05:14:00,19.9,16.7,30.04,NE,42,4.6,4.6,87,0.00,CLR,,0.00,WeatherDisplay:10.37,2013-04-17 11:14:00,
2013-04-17 05:19:00,19.9,16.7,30.02,NE,53,3.5,3.5,87,0.00,CLR,,0.00,WeatherDisplay:10.37,2013-04-17 11:19:00,
2013-04-17 05:24:00,19.9,16.7,30.02,NE,56,2.3,2.3,87,0.00,CLR,,0.00,WeatherDisplay:10.37,2013-04-17 11:24:00,
2013-04-17 05:29:00,19.9,16.7,30.02,NE,50,2.3,2.3,87,0.00,CLR,,0.00,WeatherDisplay:10.37,2013-04-17 11:29:00,
2013-04-17 05:34:00,19.9,16.7,30.02,NE,55,3.5,3.5,87,0.00,CLR,,0.00,WeatherDisplay:10.37,2013-04-17 11:34:00,
2013-04-17 05:39:00,19.9,16.7,30.02,NE,53,3.5,3.5,87,0.00,CLR,,0.00,WeatherDisplay:10.37,2013-04-17 11:39:00,
2013-04-17 05:44:00,19.9,16.7,30.02,NE,53,3.5,3.5,87,0.00,CLR,,0.00,WeatherDisplay:10.37,2013-04-17 11:44:00,
2013-04-17 05:49:00,19.9,16.7,30.03,NE,53,2.3,2.3,87,0.00,CLR,,0.00,WeatherDisplay:10.37,2013-04-17 11:49:00,
2013-04-17 05:54:00,19.9,16.7,30.03,NE,53,2.3,2.3,87,0.00,CLR,,0.00,WeatherDisplay:10.37,2013-04-17 11:54:00,
2013-04-17 05:59:00,19.7,16.5,30.03,NE,52,2.3,2.3,87,0.00,CLR,,0.00,WeatherDisplay:10.37,2013-04-17 11:59:00,
2013-04-17 06:04:00,19.7,16.5,30.03,NE,39,3.5,3.5,87,0.00,CLR,,0.00,WeatherDisplay:10.37,2013-04-17 12:04:00,
2013-04-17 06:09:00,19.7,16.5,30.03,NE,42,2.3,2.3,87,0.00,CLR,,0.00,WeatherDisplay:10.37,2013-04-17 12:09:00,
2013-04-17 06:14:00,19.7,16.5,30.03,NE,35,2.3,2.3,87,0.00,CLR,,0.00,WeatherDisplay:10.37,2013-04-17 12:14:00,
2013-04-17 06:19:00,19.7,16.2,30.05,NE,50,3.5,3.5,86,0.00,CLR,,0.00,WeatherDisplay:10.37,2013-04-17 12:19:00,
2013-04-17 06:24:00,19.9,16.4,30.05,ENE,62,3.5,3.5,86,0.00,CLR,,0.00,WeatherDisplay:10.37,2013-04-17 12:24:00,
2013-04-17 06:29:00,19.9,16.4,30.05,ENE,62,3.5,3.5,86,0.00,CLR,,0.00,WeatherDisplay:10.37,2013-04-17 12:29:00,
2013-04-17 06:34:00,19.9,16.4,30.04,NE,55,3.5,3.5,86,0.00,CLR,,0.00,WeatherDisplay:10.37,2013-04-17 12:34:00,
2013-04-17 06:39:00,19.9,16.4,30.04,NE,56,3.5,3.5,86,0.00,CLR,,0.00,WeatherDisplay:10.37,2013-04-17 12:39:00,
2013-04-17 06:44:00,20.0,16.5,30.04,ENE,59,3.5,3.5,86,0.00,CLR,,0.00,WeatherDisplay:10.37,2013-04-17 12:44:00,
2013-04-17 06:49:00,20.2,16.7,30.04,ENE,59,3.5,3.5,86,0.00,CLR,,0.00,WeatherDisplay:10.37,2013-04-17 12:49:00,
2013-04-17 06:54:00,20.5,17.2,30.04,NE,52,2.3,2.3,87,0.00,CLR,,0.00,WeatherDisplay:10.37,2013-04-17 12:54:00,
2013-04-17 06:59:00,20.5,17.0,30.04,NE,56,3.5,3.5,86,0.00,CLR,,0.00,WeatherDisplay:10.37,2013-04-17 12:59:00,
2013-04-17 07:04:00,20.6,17.1,30.03,ENE,63,2.3,2.3,86,0.00,CLR,,0.00,WeatherDisplay:10.37,2013-04-17 13:04:00,
2013-04-17 07:09:00,20.5,17.0,30.03,ENE,60,4.6,4.6,86,0.00,CLR,,0.00,WeatherDisplay:10.37,2013-04-17 13:09:00,
2013-04-17 07:14:00,20.5,17.0,30.03,ENE,72,4.6,4.6,86,0.00,CLR,,0.00,WeatherDisplay:10.37,2013-04-17 13:14:00,
2013-04-17 07:19:00,20.5,17.0,30.05,ENE,67,3.5,3.5,86,0.00,CLR,,0.00,WeatherDisplay:10.37,2013-04-17 13:19:00,
2013-04-17 07:24:00,20.6,17.1,30.05,ENE,66,3.5,3.5,86,0.00,CLR,,0.00,WeatherDisplay:10.37,2013-04-17 13:24:00,
2013-04-17 07:29:00,20.6,17.1,30.05,ENE,64,5.0,5.0,86,0.00,CLR,,0.00,WeatherDisplay:10.37,2013-04-17 13:29:00,
2013-04-17 07:34:00,20.6,17.1,30.03,ENE,70,5.0,5.0,86,0.00,CLR,,0.00,WeatherDisplay:10.37,2013-04-17 13:34:00,
2013-04-17 07:39:00,20.6,17.1,30.03,ENE,76,4.6,4.6,86,0.00,CLR,,0.00,WeatherDisplay:10.37,2013-04-17 13:39:00,
2013-04-17 07:44:00,20.6,17.1,30.03,East,80,3.5,3.5,86,0.00,CLR,,0.00,WeatherDisplay:10.37,2013-04-17 13:44:00,
2013-04-17 07:49:00,20.8,17.3,30.04,East,80,3.5,3.5,86,0.00,CLR,,0.00,WeatherDisplay:10.37,2013-04-17 13:49:00,
2013-04-17 07:54:00,20.8,17.3,30.04,East,79,3.5,3.5,86,0.00,CLR,,0.00,WeatherDisplay:10.37,2013-04-17 13:54:00,
2013-04-17 07:59:00,21.0,17.5,30.04,ENE,76,4.6,4.6,86,0.00,CLR,,0.00,WeatherDisplay:10.37,2013-04-17 13:59:00,
2013-04-17 08:04:00,21.1,17.3,30.04,East,93,3.5,3.5,85,0.00,CLR,,0.00,WeatherDisplay:10.37,2013-04-17 14:04:00,
2013-04-17 08:09:00,21.1,17.3,30.04,ENE,69,5.8,5.8,85,0.00,CLR,,0.00,WeatherDisplay:10.37,2013-04-17 14:09:00,
2013-04-17 08:14:00,21.1,17.3,30.04,ENE,59,5.8,5.8,85,0.00,CLR,,0.00,WeatherDisplay:10.37,2013-04-17 14:14:00,
2013-04-17 08:19:00,21.1,17.3,30.04,NE,42,7.0,7.0,85,0.00,CLR,,0.00,WeatherDisplay:10.37,2013-04-17 14:19:00,
2013-04-17 08:24:00,21.3,17.5,30.04,NE,43,5.8,5.8,85,0.00,CLR,,0.00,WeatherDisplay:10.37,2013-04-17 14:24:00,
2013-04-17 08:29:00,21.3,17.5,30.04,ENE,69,6.0,6.0,85,0.00,CLR,,0.00,WeatherDisplay:10.37,2013-04-17 14:29:00,
2013-04-17 08:34:00,21.1,17.0,30.04,NE,50,8.1,8.1,84,0.00,CLR,,0.00,WeatherDisplay:10.37,2013-04-17 14:34:00,
2013-04-17 08:39:00,21.0,16.9,30.04,ENE,64,8.1,8.1,84,0.00,CLR,,0.00,WeatherDisplay:10.37,2013-04-17 14:39:00,
2013-04-17 08:44:00,21.0,16.9,30.04,East,79,8.1,8.1,84,0.00,CLR,,0.00,WeatherDisplay:10.37,2013-04-17 14:44:00,
2013-04-17 08:49:00,20.8,17.0,30.03,ENE,67,8.1,8.1,85,0.00,CLR,,0.00,WeatherDisplay:10.37,2013-04-17 14:49:00,
2013-04-17 08:54:00,21.0,17.2,30.03,ENE,64,5.8,5.8,85,0.00,CLR,,0.00,WeatherDisplay:10.37,2013-04-17 14:54:00,
2013-04-17 08:59:00,21.1,17.3,30.03,East,81,6.9,6.9,85,0.00,CLR,,0.00,WeatherDisplay:10.37,2013-04-17 14:59:00,
2013-04-17 09:04:00,21.3,17.5,30.02,East,93,5.8,5.8,85,0.00,CLR,,0.00,WeatherDisplay:10.37,2013-04-17 15:04:00,
2013-04-17 09:09:00,21.1,17.3,30.02,ENE,73,4.6,4.6,85,0.00,CLR,,0.00,WeatherDisplay:10.37,2013-04-17 15:09:00,
2013-04-17 09:14:00,21.1,17.3,30.02,NE,53,5.8,5.8,85,0.00,CLR,,0.00,WeatherDisplay:10.37,2013-04-17 15:14:00,
2013-04-17 09:19:00,21.4,17.9,30.04,ENE,63,5.0,5.0,86,0.00,CLR,,0.00,WeatherDisplay:10.37,2013-04-17 15:19:00,
2013-04-17 09:24:00,21.6,18.1,30.04,NNE,19,5.0,5.0,86,0.00,CLR,,0.00,WeatherDisplay:10.37,2013-04-17 15:24:00,
2013-04-17 09:29:00,21.8,18.0,30.04,ENE,59,7.0,7.0,85,0.00,CLR,,0.00,WeatherDisplay:10.37,2013-04-17 15:29:00,
2013-04-17 09:34:00,21.9,18.1,30.01,ENE,60,4.6,4.6,85,0.00,CLR,,0.00,WeatherDisplay:10.37,2013-04-17 15:34:00,
2013-04-17 09:39:00,22.1,18.3,30.01,ENE,60,7.0,7.0,85,0.00,CLR,,0.00,WeatherDisplay:10.37,2013-04-17 15:39:00,
2013-04-17 09:44:00,22.2,18.1,30.01,NE,50,8.1,8.1,84,0.00,CLR,,0.00,WeatherDisplay:10.37,2013-04-17 15:44:00,
2013-04-17 09:49:00,22.1,18.0,30.02,NE,55,8.1,8.1,84,0.00,CLR,,0.00,WeatherDisplay:10.37,2013-04-17 15:49:00,
2013-04-17 09:54:00,21.9,17.5,30.02,East,86,6.9,6.9,83,0.00,CLR,,0.00,WeatherDisplay:10.37,2013-04-17 15:54:00,
2013-04-17 09:59:00,21.6,17.2,30.02,ENE,64,8.1,8.1,83,0.00,CLR,,0.00,WeatherDisplay:10.37,2013-04-17 15:59:00,
2013-04-17 10:04:00,21.4,17.0,30.02,ENE,62,10.4,10.4,83,0.00,CLR,,0.00,WeatherDisplay:10.37,2013-04-17 16:04:00,
2013-04-17 10:09:00,21.4,17.0,30.02,NE,46,10.4,10.4,83,0.00,CLR,,0.00,WeatherDisplay:10.37,2013-04-17 16:09:00,
2013-04-17 10:14:00,21.8,17.4,30.02,East,87,11.5,11.5,83,0.00,CLR,,0.00,WeatherDisplay:10.37,2013-04-17 16:14:00,
2013-04-17 10:19:00,21.9,17.5,30.04,ENE,63,8.1,8.1,83,0.00,CLR,,0.00,WeatherDisplay:10.37,2013-04-17 16:19:00,
2013-04-17 10:24:00,22.1,17.7,30.04,ENE,60,10.4,10.4,83,0.00,CLR,,0.00,WeatherDisplay:10.37,2013-04-17 16:24:00,
2013-04-17 10:29:00,21.8,17.4,30.04,ENE,72,10.4,10.4,83,0.00,CLR,,0.00,WeatherDisplay:10.37,2013-04-17 16:29:00,
2013-04-17 10:34:00,21.9,17.5,30.05,NE,52,8.1,8.1,83,0.00,CLR,,0.00,WeatherDisplay:10.37,2013-04-17 16:34:00,
2013-04-17 10:39:00,22.1,18.0,30.05,ENE,70,6.9,6.9,84,0.00,CLR,,0.00,WeatherDisplay:10.37,2013-04-17 16:39:00,
2013-04-17 10:44:00,22.5,18.4,30.05,NNE,33,4.6,4.6,84,0.00,CLR,,0.00,WeatherDisplay:10.37,2013-04-17 16:44:00,
2013-04-17 10:49:00,23.0,18.6,30.03,NNE,29,8.1,8.1,83,0.00,CLR,,0.00,WeatherDisplay:10.37,2013-04-17 16:49:00,
2013-04-17 10:54:00,23.2,18.8,30.03,ENE,59,6.9,6.9,83,0.00,CLR,,0.00,WeatherDisplay:10.37,2013-04-17 16:54:00,
2013-04-17 10:59:00,23.3,18.9,30.03,East,79,5.8,5.8,83,0.00,CLR,,0.00,WeatherDisplay:10.37,2013-04-17 16:59:00,
2013-04-17 11:04:00,23.2,18.8,30.01,ENE,69,6.0,6.0,83,0.00,CLR,,0.00,WeatherDisplay:10.37,2013-04-17 17:04:00,
2013-04-17 11:09:00,23.2,18.8,30.01,East,81,4.6,4.6,83,0.00,CLR,,0.00,WeatherDisplay:10.37,2013-04-17 17:09:00,
2013-04-17 11:14:00,22.5,17.8,30.01,East,90,10.4,10.4,82,0.00,CLR,,0.00,WeatherDisplay:10.37,2013-04-17 17:14:00,
2013-04-17 11:19:00,22.1,17.7,30.01,ENE,66,8.1,8.1,83,0.00,CLR,,0.00,WeatherDisplay:10.37,2013-04-17 17:19:00,
2013-04-17 11:24:00,21.9,17.8,30.01,ENE,66,11.5,11.5,84,0.00,CLR,,0.00,WeatherDisplay:10.37,2013-04-17 17:24:00,
2013-04-17 11:29:00,21.9,17.5,30.01,East,87,11.5,11.5,83,0.00,CLR,,0.00,WeatherDisplay:10.37,2013-04-17 17:29:00,
2013-04-17 11:34:00,21.8,17.7,30.04,East,83,13.0,13.0,84,0.00,CLR,,0.00,WeatherDisplay:10.37,2013-04-17 17:34:00,
2013-04-17 11:39:00,21.4,17.0,30.04,NE,42,16.0,16.0,83,0.00,CLR,,0.00,WeatherDisplay:10.37,2013-04-17 17:39:00,
2013-04-17 11:44:00,21.4,17.3,30.04,East,88,13.8,13.8,84,0.00,CLR,,0.00,WeatherDisplay:10.37,2013-04-17 17:44:00,
2013-04-17 11:49:00,22.1,18.3,30.04,NNE,33,11.5,11.5,85,0.00,CLR,,0.00,WeatherDisplay:10.37,2013-04-17 17:49:00,
2013-04-17 11:54:00,23.0,18.9,30.04,NNE,33,11.5,11.5,84,0.00,CLR,,0.00,WeatherDisplay:10.37,2013-04-17 17:54:00,
2013-04-17 11:59:00,24.2,20.1,30.04,East,79,11.5,11.5,84,0.00,CLR,,0.00,WeatherDisplay:10.37,2013-04-17 17:59:00,
2013-04-17 12:04:00,23.9,18.9,30.02,East,86,12.7,12.7,81,0.00,CLR,,0.00,WeatherDisplay:10.37,2013-04-17 18:04:00,
2013-04-17 12:09:00,23.9,18.9,30.02,ENE,72,11.5,11.5,81,0.00,CLR,,0.00,WeatherDisplay:10.37,2013-04-17 18:09:00,
2013-04-17 12:14:00,24.4,19.4,30.02,ENE,60,13.8,13.8,81,0.00,CLR,,0.00,WeatherDisplay:10.37,2013-04-17 18:14:00,
2013-04-17 12:19:00,23.9,18.6,30.01,East,80,11.5,11.5,80,0.00,CLR,,0.00,WeatherDisplay:10.37,2013-04-17 18:19:00,
2013-04-17 12:24:00,23.5,18.8,30.01,NNE,21,14.0,14.0,82,0.00,CLR,,0.00,WeatherDisplay:10.37,2013-04-17 18:24:00,
2013-04-17 12:29:00,23.2,17.9,30.01,NE,48,12.0,12.0,80,0.00,CLR,,0.00,WeatherDisplay:10.37,2013-04-17 18:29:00,
2013-04-17 12:34:00,22.2,17.0,30.01,ENE,76,13.8,13.8,80,0.00,CLR,,0.00,WeatherDisplay:10.37,2013-04-17 18:34:00,
2013-04-17 12:39:00,21.6,16.4,30.01,NE,48,13.8,13.8,80,0.00,CLR,,0.00,WeatherDisplay:10.37,2013-04-17 18:39:00,
2013-04-17 12:44:00,21.6,16.4,30.01,East,80,12.7,12.7,80,0.00,CLR,,0.00,WeatherDisplay:10.37,2013-04-17 18:44:00,
2013-04-17 12:49:00,21.6,16.4,30.02,East,97,11.5,11.5,80,0.00,CLR,,0.00,WeatherDisplay:10.37,2013-04-17 18:49:00,
2013-04-17 12:54:00,21.3,16.1,30.02,East,79,13.0,13.0,80,0.00,CLR,,0.00,WeatherDisplay:10.37,2013-04-17 18:54:00,
2013-04-17 12:59:00,21.1,15.9,30.02,East,94,11.5,11.5,80,0.00,CLR,,0.00,WeatherDisplay:10.37,2013-04-17 18:59:00,
2013-04-17 13:04:00,21.0,15.8,30.03,East,100,12.7,12.7,80,0.00,CLR,,0.00,WeatherDisplay:10.37,2013-04-17 19:04:00,
2013-04-17 13:09:00,20.8,15.9,30.03,East,96,13.8,13.8,81,0.00,CLR,,0.00,WeatherDisplay:10.37,2013-04-17 19:09:00,
2013-04-17 13:14:00,20.6,15.4,30.03,East,94,13.8,13.8,80,0.00,CLR,,0.00,WeatherDisplay:10.37,2013-04-17 19:14:00,
2013-04-17 13:19:00,20.6,15.7,30.02,ENE,66,12.7,12.7,81,0.00,CLR,,0.00,WeatherDisplay:10.37,2013-04-17 19:19:00,
2013-04-17 13:24:00,21.0,16.1,30.02,East,96,18.4,18.4,81,0.00,CLR,,0.00,WeatherDisplay:10.37,2013-04-17 19:24:00,
2013-04-17 13:29:00,20.6,15.4,30.02,East,96,13.8,13.8,80,0.00,CLR,,0.00,WeatherDisplay:10.37,2013-04-17 19:29:00,
2013-04-17 13:34:00,20.6,15.7,30.03,NNE,28,11.5,11.5,81,0.00,CLR,,0.00,WeatherDisplay:10.37,2013-04-17 19:34:00,
2013-04-17 13:39:00,20.8,15.9,30.03,East,84,11.5,11.5,81,0.00,CLR,,0.00,WeatherDisplay:10.37,2013-04-17 19:39:00,
2013-04-17 13:44:00,20.5,15.6,30.03,East,87,17.3,17.3,81,0.00,CLR,,0.00,WeatherDisplay:10.37,2013-04-17 19:44:00,
2013-04-17 13:49:00,20.0,15.1,30.04,East,86,13.8,13.8,81,0.00,CLR,,0.00,WeatherDisplay:10.37,2013-04-17 19:49:00,
2013-04-17 13:54:00,19.4,14.8,30.04,ENE,72,12.0,12.0,82,0.00,CLR,,0.00,WeatherDisplay:10.37,2013-04-17 19:54:00,
2013-04-17 13:59:00,19.2,14.6,30.04,NE,56,17.3,17.3,82,0.00,CLR,,0.00,WeatherDisplay:10.37,2013-04-17 19:59:00,
2013-04-17 14:04:00,19.1,14.8,30.07,ENE,66,12.7,12.7,83,0.00,CLR,,0.00,WeatherDisplay:10.37,2013-04-17 20:04:00,
2013-04-17 14:09:00,19.1,14.8,30.07,East,83,6.9,6.9,83,0.00,CLR,,0.00,WeatherDisplay:10.37,2013-04-17 20:09:00,
2013-04-17 14:14:00,19.1,14.8,30.07,East,83,11.5,11.5,83,0.00,CLR,,0.00,WeatherDisplay:10.37,2013-04-17 20:14:00,
2013-04-17 14:19:00,18.8,14.5,30.11,East,94,8.1,8.1,83,0.00,CLR,,0.00,WeatherDisplay:10.37,2013-04-17 20:19:00,
2013-04-17 14:24:00,18.6,14.3,30.11,East,81,11.0,11.0,83,0.00,CLR,,0.00,WeatherDisplay:10.37,2013-04-17 20:24:00,
2013-04-17 14:29:00,18.4,14.1,30.11,East,84,8.1,8.1,83,0.00,CLR,,0.00,WeatherDisplay:10.37,2013-04-17 20:29:00,
2013-04-17 14:34:00,18.4,14.1,30.10,East,90,10.4,10.4,83,0.00,CLR,,0.00,WeatherDisplay:10.37,2013-04-17 20:34:00,
2013-04-17 14:39:00,18.3,14.0,30.10,East,93,10.4,10.4,83,0.00,CLR,,0.00,WeatherDisplay:10.37,2013-04-17 20:39:00,
2013-04-17 14:44:00,18.3,14.3,30.10,ENE,64,8.1,8.1,84,0.00,CLR,,0.00,WeatherDisplay:10.37,2013-04-17 20:44:00,
2013-04-17 14:49:00,18.4,14.4,30.10,East,98,8.1,8.1,84,0.00,CLR,,0.00,WeatherDisplay:10.37,2013-04-17 20:49:00,
2013-04-17 14:54:00,18.4,14.4,30.10,East,90,8.1,8.1,84,0.00,CLR,,0.00,WeatherDisplay:10.37,2013-04-17 20:54:00,
2013-04-17 14:59:00,18.6,14.3,30.10,East,80,6.9,6.9,83,0.00,CLR,,0.00,WeatherDisplay:10.37,2013-04-17 20:59:00,
2013-04-17 15:04:00,18.6,14.3,30.10,ESE,108,10.0,10.0,83,0.00,CLR,,0.00,WeatherDisplay:10.37,2013-04-17 21:04:00,
2013-04-17 15:09:00,18.4,14.1,30.10,East,100,6.9,6.9,83,0.00,CLR,,0.00,WeatherDisplay:10.37,2013-04-17 21:09:00,
2013-04-17 15:14:00,18.4,14.1,30.10,East,83,11.5,11.5,83,0.00,CLR,,0.00,WeatherDisplay:10.37,2013-04-17 21:14:00,
2013-04-17 15:19:00,18.6,14.3,30.10,ENE,70,8.1,8.1,83,0.00,CLR,,0.00,WeatherDisplay:10.37,2013-04-17 21:19:00,
2013-04-17 15:24:00,18.6,14.0,30.10,East,98,6.0,6.0,82,0.00,CLR,,0.00,WeatherDisplay:10.37,2013-04-17 21:24:00,
2013-04-17 15:29:00,18.4,13.8,30.10,ESE,114,5.8,5.8,82,0.00,CLR,,0.00,WeatherDisplay:10.37,2013-04-17 21:29:00,
2013-04-17 15:34:00,18.6,14.0,30.11,East,79,7.0,7.0,82,0.00,CLR,,0.00,WeatherDisplay:10.37,2013-04-17 21:34:00,
2013-04-17 15:39:00,18.6,14.0,30.11,East,83,10.0,10.0,82,0.00,CLR,,0.00,WeatherDisplay:10.37,2013-04-17 21:39:00,
2013-04-17 15:44:00,18.8,14.2,30.11,East,79,10.4,10.4,82,0.00,CLR,,0.00,WeatherDisplay:10.37,2013-04-17 21:44:00,
2013-04-17 15:49:00,18.8,14.2,30.11,East,94,6.9,6.9,82,0.00,CLR,,0.00,WeatherDisplay:10.37,2013-04-17 21:49:00,
2013-04-17 15:54:00,18.6,14.0,30.11,East,79,10.4,10.4,82,0.00,CLR,,0.00,WeatherDisplay:10.37,2013-04-17 21:54:00,
2013-04-17 15:59:00,18.6,14.0,30.11,East,91,8.1,8.1,82,0.00,CLR,,0.00,WeatherDisplay:10.37,2013-04-17 21:59:00,
2013-04-17 16:04:00,18.6,14.0,30.12,East,86,8.1,8.1,82,0.00,CLR,,0.00,WeatherDisplay:10.37,2013-04-17 22:04:00,
2013-04-17 16:09:00,18.6,14.0,30.12,East,94,8.0,8.0,82,0.00,CLR,,0.00,WeatherDisplay:10.37,2013-04-17 22:09:00,
2013-04-17 16:14:00,18.8,14.5,30.12,ENE,63,6.9,6.9,83,0.00,CLR,,0.00,WeatherDisplay:10.37,2013-04-17 22:14:00,
2013-04-17 16:19:00,18.8,14.2,30.11,East,91,7.0,7.0,82,0.00,CLR,,0.00,WeatherDisplay:10.37,2013-04-17 22:19:00,
2013-04-17 16:24:00,18.8,14.2,30.11,East,91,10.4,10.4,82,0.00,CLR,,0.00,WeatherDisplay:10.37,2013-04-17 22:24:00,
2013-04-17 16:29:00,18.4,13.8,30.11,East,90,7.0,7.0,82,0.00,CLR,,0.00,WeatherDisplay:10.37,2013-04-17 22:29:00,
2013-04-17 16:34:00,18.6,14.0,30.09,East,94,6.9,6.9,82,0.00,CLR,,0.00,WeatherDisplay:10.37,2013-04-17 22:34:00,
2013-04-17 16:39:00,18.6,14.0,30.09,East,96,8.1,8.1,82,0.00,CLR,,0.00,WeatherDisplay:10.37,2013-04-17 22:39:00,
2013-04-17 16:44:00,18.3,13.7,30.09,East,83,11.5,11.5,82,0.00,CLR,,0.00,WeatherDisplay:10.37,2013-04-17 22:44:00,
2013-04-17 16:49:00,18.3,13.7,30.10,East,81,10.4,10.4,82,0.00,CLR,,0.00,WeatherDisplay:10.37,2013-04-17 22:49:00,
2013-04-17 16:54:00,18.1,13.3,30.10,East,91,8.1,8.1,81,0.00,CLR,,0.00,WeatherDisplay:10.37,2013-04-17 22:54:00,
2013-04-17 16:59:00,18.0,13.2,30.10,ESE,104,8.1,8.1,81,0.00,CLR,,0.00,WeatherDisplay:10.37,2013-04-17 22:59:00,
2013-04-17 17:04:00,18.1,13.3,30.12,East,87,10.4,10.4,81,0.00,CLR,,0.00,WeatherDisplay:10.37,2013-04-17 23:04:00,
2013-04-17 17:09:00,18.0,13.2,30.12,ENE,57,11.5,11.5,81,0.00,CLR,,0.00,WeatherDisplay:10.37,2013-04-17 23:09:00,
2013-04-17 17:14:00,17.8,13.0,30.12,ENE,76,17.0,17.0,81,0.00,CLR,,0.00,WeatherDisplay:10.37,2013-04-17 23:14:00,
2013-04-17 17:19:00,17.7,12.9,30.13,East,86,16.1,16.1,81,0.00,CLR,,0.00,WeatherDisplay:10.37,2013-04-17 23:19:00,
2013-04-17 17:24:00,17.7,12.9,30.13,East,101,13.8,13.8,81,0.00,CLR,,0.00,WeatherDisplay:10.37,2013-04-17 23:24:00,
2013-04-17 17:29:00,17.3,12.5,30.13,East,100,10.4,10.4,81,0.00,CLR,,0.00,WeatherDisplay:10.37,2013-04-17 23:29:00,
2013-04-17 17:34:00,17.2,12.4,30.15,East,86,12.7,12.7,81,0.00,CLR,,0.00,WeatherDisplay:10.37,2013-04-17 23:34:00,
2013-04-17 17:39:00,17.0,12.2,30.15,East,93,12.7,12.7,81,0.00,CLR,,0.00,WeatherDisplay:10.37,2013-04-17 23:39:00,
2013-04-17 17:44:00,17.0,12.2,30.15,East,83,11.5,11.5,81,0.00,CLR,,0.00,WeatherDisplay:10.37,2013-04-17 23:44:00,
2013-04-17 17:49:00,16.7,11.9,30.16,East,90,12.7,12.7,81,0.00,CLR,,0.00,WeatherDisplay:10.37,2013-04-17 23:49:00,
2013-04-17 17:54:00,16.5,11.7,30.16,East,94,12.7,12.7,81,0.00,CLR,,0.00,WeatherDisplay:10.37,2013-04-17 23:54:00,
2013-04-17 17:59:00,16.5,11.7,30.16,East,88,11.5,11.5,81,0.00,CLR,,0.00,WeatherDisplay:10.37,2013-04-17 23:59:00,
2013-04-17 18:04:00,16.4,11.6,30.16,East,88,11.5,11.5,81,0.00,CLR,,0.00,WeatherDisplay:10.37,2013-04-18 00:04:00,
2013-04-17 18:09:00,16.4,11.6,30.16,East,90,11.5,11.5,81,0.00,CLR,,0.00,WeatherDisplay:10.37,2013-04-18 00:09:00,
2013-04-17 18:14:00,16.1,11.3,30.16,East,94,12.7,12.7,81,0.00,CLR,,0.00,WeatherDisplay:10.37,2013-04-18 00:14:00,
2013-04-17 18:19:00,15.7,10.6,30.17,East,97,11.5,11.5,80,0.00,CLR,,0.00,WeatherDisplay:10.37,2013-04-18 00:19:00,
2013-04-17 18:24:00,15.6,10.5,30.17,East,83,11.5,11.5,80,0.00,CLR,,0.00,WeatherDisplay:10.37,2013-04-18 00:24:00,
2013-04-17 18:29:00,15.4,10.3,30.17,ENE,67,10.4,10.4,80,0.00,CLR,,0.00,WeatherDisplay:10.37,2013-04-18 00:29:00,
2013-04-17 18:34:00,15.1,10.3,30.19,East,79,8.1,8.1,81,0.00,CLR,,0.00,WeatherDisplay:10.37,2013-04-18 00:34:00,
2013-04-17 18:39:00,15.1,10.3,30.19,East,88,10.4,10.4,81,0.00,CLR,,0.00,WeatherDisplay:10.37,2013-04-18 00:39:00,
2013-04-17 18:44:00,14.9,10.1,30.19,East,100,11.5,11.5,81,0.00,CLR,,0.00,WeatherDisplay:10.37,2013-04-18 00:44:00,
2013-04-17 18:49:00,14.9,10.1,30.20,ENE,76,6.9,6.9,81,0.00,CLR,,0.00,WeatherDisplay:10.37,2013-04-18 00:49:00,
2013-04-17 18:54:00,14.9,10.1,30.20,East,84,11.5,11.5,81,0.00,CLR,,0.00,WeatherDisplay:10.37,2013-04-18 00:54:00,
2013-04-17 18:59:00,14.9,9.8,30.20,East,86,11.5,11.5,80,0.00,CLR,,0.00,WeatherDisplay:10.37,2013-04-18 00:59:00,
2013-04-17 19:04:00,14.8,9.7,30.21,East,100,11.5,11.5,80,0.00,CLR,,0.00,WeatherDisplay:10.37,2013-04-18 01:04:00,
2013-04-17 19:09:00,14.6,9.6,30.21,East,88,8.1,8.1,80,0.00,CLR,,0.00,WeatherDisplay:10.37,2013-04-18 01:09:00,
2013-04-17 19:14:00,14.6,9.6,30.21,East,94,4.6,4.6,80,0.00,CLR,,0.00,WeatherDisplay:10.37,2013-04-18 01:14:00,
2013-04-17 19:19:00,14.4,9.6,30.22,East,93,11.5,11.5,81,0.00,CLR,,0.00,WeatherDisplay:10.37,2013-04-18 01:19:00,
2013-04-17 19:24:00,14.3,9.3,30.22,East,84,12.7,12.7,80,0.00,CLR,,0.00,WeatherDisplay:10.37,2013-04-18 01:24:00,
2013-04-17 19:29:00,14.3,9.5,30.22,East,94,8.1,8.1,81,0.00,CLR,,0.00,WeatherDisplay:10.37,2013-04-18 01:29:00,
2013-04-17 19:34:00,14.1,9.3,30.25,East,93,7.0,7.0,81,0.00,CLR,,0.00,WeatherDisplay:10.37,2013-04-18 01:34:00,
2013-04-17 19:39:00,14.0,9.2,30.25,East,87,6.9,6.9,81,0.00,CLR,,0.00,WeatherDisplay:10.37,2013-04-18 01:39:00,
2013-04-17 19:44:00,14.0,9.2,30.25,East,94,5.8,5.8,81,0.00,CLR,,0.00,WeatherDisplay:10.37,2013-04-18 01:44:00,
2013-04-17 19:49:00,13.8,9.0,30.26,East,98,5.0,5.0,81,0.00,CLR,,0.00,WeatherDisplay:10.37,2013-04-18 01:49:00,
2013-04-17 19:54:00,13.6,8.9,30.26,East,98,8.1,8.1,81,0.00,CLR,,0.00,WeatherDisplay:10.37,2013-04-18 01:54:00,
2013-04-17 19:59:00,13.6,8.9,30.26,ESE,110,3.5,3.5,81,0.00,CLR,,0.00,WeatherDisplay:10.37,2013-04-18 01:59:00,
2013-04-17 20:04:00,13.6,8.9,30.27,ESE,103,6.0,6.0,81,0.00,CLR,,0.00,WeatherDisplay:10.37,2013-04-18 02:04:00,
2013-04-17 20:09:00,13.6,8.9,30.27,East,83,5.8,5.8,81,0.00,CLR,,0.00,WeatherDisplay:10.37,2013-04-18 02:09:00,
2013-04-17 20:14:00,13.6,8.9,30.27,East,97,6.9,6.9,81,0.00,CLR,,0.00,WeatherDisplay:10.37,2013-04-18 02:14:00,
2013-04-17 20:19:00,13.6,8.9,30.27,East,86,5.8,5.8,81,0.00,CLR,,0.00,WeatherDisplay:10.37,2013-04-18 02:19:00,
2013-04-17 20:24:00,13.6,8.9,30.27,East,84,8.0,8.0,81,0.00,CLR,,0.00,WeatherDisplay:10.37,2013-04-18 02:24:00,
2013-04-17 20:29:00,13.5,8.8,30.27,ESE,103,2.3,2.3,81,0.00,CLR,,0.00,WeatherDisplay:10.37,2013-04-18 02:29:00,
2013-04-17 20:34:00,13.5,8.8,30.28,ESE,121,2.3,2.3,81,0.00,CLR,,0.00,WeatherDisplay:10.37,2013-04-18 02:34:00,
2013-04-17 20:39:00,13.5,8.8,30.28,ESE,122,1.2,1.2,81,0.00,CLR,,0.00,WeatherDisplay:10.37,2013-04-18 02:39:00,
2013-04-17 20:44:00,13.3,8.6,30.28,SE,125,3.0,3.0,81,0.00,CLR,,0.00,WeatherDisplay:10.37,2013-04-18 02:44:00,
2013-04-17 20:49:00,13.1,8.4,30.29,ESE,112,2.0,2.0,81,0.00,CLR,,0.00,WeatherDisplay:10.37,2013-04-18 02:49:00,
2013-04-17 20:54:00,13.1,8.4,30.29,ESE,105,5.8,5.8,81,0.00,CLR,,0.00,WeatherDisplay:10.37,2013-04-18 02:54:00,
2013-04-17 20:59:00,12.9,8.2,30.29,SE,127,2.3,2.3,81,0.00,CLR,,0.00,WeatherDisplay:10.37,2013-04-18 02:59:00,
2013-04-17 21:04:00,12.9,8.2,30.29,East,100,3.5,3.5,81,0.00,CLR,,0.00,WeatherDisplay:10.37,2013-04-18 03:04:00,
2013-04-17 21:09:00,12.9,8.2,30.29,East,84,3.5,3.5,81,0.00,CLR,,0.00,WeatherDisplay:10.37,2013-04-18 03:09:00,
2013-04-17 21:14:00,12.9,8.2,30.29,East,84,2.3,2.3,81,0.00,CLR,,0.00,WeatherDisplay:10.37,2013-04-18 03:14:00,
2013-04-17 21:19:00,12.9,8.4,30.29,East,84,2.3,2.3,82,0.00,CLR,,0.00,WeatherDisplay:10.37,2013-04-18 03:19:00,
2013-04-17 21:24:00,12.9,8.2,30.29,East,90,2.0,2.0,81,0.00,CLR,,0.00,WeatherDisplay:10.37,2013-04-18 03:24:00,
2013-04-17 21:29:00,12.9,8.4,30.29,East,87,4.6,4.6,82,0.00,CLR,,0.00,WeatherDisplay:10.37,2013-04-18 03:29:00,
2013-04-17 21:34:00,12.9,8.4,30.30,East,101,2.3,2.3,82,0.00,CLR,,0.00,WeatherDisplay:10.37,2013-04-18 03:34:00,
2013-04-17 21:39:00,12.9,8.4,30.30,East,101,3.5,3.5,82,0.00,CLR,,0.00,WeatherDisplay:10.37,2013-04-18 03:39:00,
2013-04-17 21:44:00,12.9,8.4,30.30,ESE,103,3.5,3.5,82,0.00,CLR,,0.00,WeatherDisplay:10.37,2013-04-18 03:44:00,
2013-04-17 21:49:00,12.9,8.4,30.31,East,94,2.3,2.3,82,0.00,CLR,,0.00,WeatherDisplay:10.37,2013-04-18 03:49:00,
2013-04-17 21:54:00,12.9,8.4,30.31,East,93,1.2,0.0,82,0.00,CLR,,0.00,WeatherDisplay:10.37,2013-04-18 03:54:00,
2013-04-17 21:59:00,12.9,8.4,30.31,East,93,2.3,2.3,82,0.00,CLR,,0.00,WeatherDisplay:10.37,2013-04-18 03:59:00,
2013-04-17 22:01:00,12.9,8.4,30.31,East,93,2.3,2.3,82,0.00,CLR,,0.00,WeatherDisplay:10.37,2013-04-18 04:01:00,
2013-04-17 22:02:00,12.9,8.4,30.31,East,93,2.3,2.3,82,0.00,CLR,,0.00,WeatherDisplay:10.37,2013-04-18 04:02:00,
2013-04-17 22:07:00,12.9,8.4,30.31,East,93,2.3,2.3,82,0.00,CLR,,0.00,WeatherDisplay:10.37,2013-04-18 04:07:00,
2013-04-17 22:12:00,12.8,8.3,30.31,East,93,1.2,1.2,82,0.00,CLR,,0.00,WeatherDisplay:10.37,2013-04-18 04:12:00,
2013-04-17 22:17:00,12.8,8.3,30.29,East,93,1.2,1.2,82,0.00,CLR,,0.00,WeatherDisplay:10.37,2013-04-18 04:17:00,
2013-04-17 22:22:00,12.8,8.3,30.29,East,93,1.2,0.0,82,0.00,CLR,,0.00,WeatherDisplay:10.37,2013-04-18 04:22:00,
2013-04-17 22:27:00,12.6,8.1,30.29,East,93,0.0,0.0,82,0.00,CLR,,0.00,WeatherDisplay:10.37,2013-04-18 04:27:00,
2013-04-17 22:32:00,12.4,8.0,30.28,East,93,0.0,0.0,82,0.00,CLR,,0.00,WeatherDisplay:10.37,2013-04-18 04:32:00,
2013-04-17 22:37:00,12.3,7.9,30.28,East,93,0.0,0.0,82,0.00,CLR,,0.00,WeatherDisplay:10.37,2013-04-18 04:37:00,
2013-04-17 22:42:00,12.1,7.7,30.28,East,93,0.0,0.0,82,0.00,CLR,,0.00,WeatherDisplay:10.37,2013-04-18 04:42:00,
2013-04-17 22:47:00,11.9,7.2,30.30,East,93,0.0,0.0,81,0.00,CLR,,0.00,WeatherDisplay:10.37,2013-04-18 04:47:00,
2013-04-17 22:52:00,11.7,7.0,30.30,East,93,1.2,0.0,81,0.00,CLR,,0.00,WeatherDisplay:10.37,2013-04-18 04:52:00,
2013-04-17 22:57:00,11.4,6.7,30.30,East,94,1.2,1.2,81,0.00,CLR,,0.00,WeatherDisplay:10.37,2013-04-18 04:57:00,
2013-04-17 23:02:00,11.1,6.4,30.29,East,94,1.2,1.2,81,0.00,CLR,,0.00,WeatherDisplay:10.37,2013-04-18 05:02:00,
2013-04-17 23:07:00,10.9,6.2,30.29,East,93,3.5,3.5,81,0.00,CLR,,0.00,WeatherDisplay:10.37,2013-04-18 05:07:00,
2013-04-17 23:12:00,10.4,5.5,30.29,East,93,1.2,1.2,80,0.00,CLR,,0.00,WeatherDisplay:10.37,2013-04-18 05:12:00,
2013-04-17 23:17:00,9.9,5.0,30.29,East,93,0.0,0.0,80,0.00,CLR,,0.00,WeatherDisplay:10.37,2013-04-18 05:17:00,
2013-04-17 23:22:00,9.3,4.4,30.29,East,93,1.0,1.0,80,0.00,CLR,,0.00,WeatherDisplay:10.37,2013-04-18 05:22:00,
2013-04-17 23:27:00,9.2,4.3,30.29,East,93,2.3,2.3,80,0.00,CLR,,0.00,WeatherDisplay:10.37,2013-04-18 05:27:00,
2013-04-17 23:32:00,8.8,3.9,30.31,South,179,1.2,1.2,80,0.00,CLR,,0.00,WeatherDisplay:10.37,2013-04-18 05:32:00,
2013-04-17 23:37:00,8.4,3.5,30.31,South,179,1.2,1.2,80,0.00,CLR,,0.00,WeatherDisplay:10.37,2013-04-18 05:37:00,
2013-04-17 23:42:00,8.1,3.2,30.31,South,179,0.0,0.0,80,0.00,CLR,,0.00,WeatherDisplay:10.37,2013-04-18 05:42:00,
2013-04-17 23:47:00,7.9,3.0,30.31,South,179,0.0,0.0,80,0.00,CLR,,0.00,WeatherDisplay:10.37,2013-04-18 05:47:00,
2013-04-17 23:52:00,7.6,2.7,30.31,South,179,0.0,0.0,80,0.00,CLR,,0.00,WeatherDisplay:10.37,2013-04-18 05:52:00,
2013-04-17 23:57:00,7.6,2.7,30.31,South,179,0.0,0.0,80,0.00,CLR,,0.00,WeatherDisplay:10.37,2013-04-18 05:57:00,